sensor_id;sensor_type;location;lat;lon;timestamp;pressure;altitude;pressure_sealevel;temperature;humidity
58761;BME280;44529;47.464;19.014;2023-01-25T00:02:17;101821.72;;;1.28;100.00
58761;BME280;44529;47.464;19.014;2023-01-25T00:05:19;101820.91;;;1.27;100.00
58761;BME280;44529;47.464;19.014;2023-01-25T00:08:22;101820.91;;;1.27;100.00
58761;BME280;44529;47.464;19.014;2023-01-25T00:11:24;101831.84;;;0.99;100.00
58761;BME280;44529;47.464;19.014;2023-01-25T00:14:27;101836.56;;;0.97;100.00
58761;BME280;44529;47.464;19.014;2023-01-25T00:17:29;101837.78;;;1.01;100.00
58761;BME280;44529;47.464;19.014;2023-01-25T00:20:32;101837.56;;;1.03;100.00
58761;BME280;44529;47.464;19.014;2023-01-25T00:23:35;101833.69;;;1.05;100.00
58761;BME280;44529;47.464;19.014;2023-01-25T00:26:37;101839.81;;;1.06;100.00
58761;BME280;44529;47.464;19.014;2023-01-25T00:29:42;101843.13;;;0.88;100.00
58761;BME280;44529;47.464;19.014;2023-01-25T00:32:51;101836.38;;;0.86;100.00
58761;BME280;44529;47.464;19.014;2023-01-25T00:35:55;101840.66;;;1.00;100.00
58761;BME280;44529;47.464;19.014;2023-01-25T00:38:57;101837.41;;;0.91;100.00
58761;BME280;44529;47.464;19.014;2023-01-25T00:42:00;101844.16;;;0.94;100.00
58761;BME280;44529;47.464;19.014;2023-01-25T00:45:03;101840.69;;;0.87;100.00
58761;BME280;44529;47.464;19.014;2023-01-25T00:48:05;101839.25;;;0.84;100.00
58761;BME280;44529;47.464;19.014;2023-01-25T00:51:07;101840.28;;;0.76;100.00
58761;BME280;44529;47.464;19.014;2023-01-25T00:54:10;101841.09;;;0.77;100.00
58761;BME280;44529;47.464;19.014;2023-01-25T00:57:12;101836.00;;;0.62;100.00
58761;BME280;44529;47.464;19.014;2023-01-25T01:00:15;101842.34;;;0.48;100.00
58761;BME280;44529;47.464;19.014;2023-01-25T01:03:18;101845.62;;;0.57;100.00
58761;BME280;44529;47.464;19.014;2023-01-25T01:06:20;101843.37;;;0.60;100.00
58761;BME280;44529;47.464;19.014;2023-01-25T01:09:23;101849.72;;;0.52;100.00
58761;BME280;44529;47.464;19.014;2023-01-25T01:12:26;101839.91;;;0.40;100.00
58761;BME280;44529;47.464;19.014;2023-01-25T01:15:28;101850.34;;;0.48;100.00
58761;BME280;44529;47.464;19.014;2023-01-25T01:18:35;101858.31;;;0.48;100.00
58761;BME280;44529;47.464;19.014;2023-01-25T01:21:37;101850.34;;;0.54;100.00
58761;BME280;44529;47.464;19.014;2023-01-25T01:24:40;101854.63;;;0.56;100.00
58761;BME280;44529;47.464;19.014;2023-01-25T01:27:43;101849.72;;;0.59;100.00
58761;BME280;44529;47.464;19.014;2023-01-25T01:30:45;101863.44;;;0.56;100.00
58761;BME280;44529;47.464;19.014;2023-01-25T01:33:52;101859.56;;;0.52;100.00
58761;BME280;44529;47.464;19.014;2023-01-25T01:36:56;101856.25;;;0.50;100.00
58761;BME280;44529;47.464;19.014;2023-01-25T01:39:58;101854.84;;;0.54;100.00
58761;BME280;44529;47.464;19.014;2023-01-25T01:43:04;101853.00;;;0.48;100.00
58761;BME280;44529;47.464;19.014;2023-01-25T01:46:21;101856.69;;;0.47;100.00
58761;BME280;44529;47.464;19.014;2023-01-25T01:49:28;101859.12;;;0.55;100.00
58761;BME280;44529;47.464;19.014;2023-01-25T01:52:35;101857.50;;;0.54;100.00
58761;BME280;44529;47.464;19.014;2023-01-25T01:55:39;101855.88;;;0.53;100.00
58761;BME280;44529;47.464;19.014;2023-01-25T01:58:42;101845.62;;;0.30;100.00
58761;BME280;44529;47.464;19.014;2023-01-25T02:01:46;101844.41;;;0.33;100.00
58761;BME280;44529;47.464;19.014;2023-01-25T02:04:49;101850.13;;;0.43;100.00
58761;BME280;44529;47.464;19.014;2023-01-25T02:07:53;101841.13;;;0.37;100.00
58761;BME280;44529;47.464;19.014;2023-01-25T02:10:58;101839.47;;;0.36;100.00
58761;BME280;44529;47.464;19.014;2023-01-25T02:14:01;101838.44;;;0.44;100.00
58761;BME280;44529;47.464;19.014;2023-01-25T02:17:04;101838.47;;;0.37;100.00
58761;BME280;44529;47.464;19.014;2023-01-25T02:26:30;101828.25;;;0.34;100.00
58761;BME280;44529;47.464;19.014;2023-01-25T02:29:33;101837.84;;;0.29;100.00
58761;BME280;44529;47.464;19.014;2023-01-25T02:32:37;101831.72;;;0.28;100.00
58761;BME280;44529;47.464;19.014;2023-01-25T02:39:05;101824.94;;;0.19;100.00
58761;BME280;44529;47.464;19.014;2023-01-25T02:42:10;101815.31;;;0.18;100.00
58761;BME280;44529;47.464;19.014;2023-01-25T02:45:15;101810.00;;;0.11;100.00
58761;BME280;44529;47.464;19.014;2023-01-25T02:48:19;101807.13;;;0.06;100.00
58761;BME280;44529;47.464;19.014;2023-01-25T02:51:25;101806.75;;;0.09;100.00
58761;BME280;44529;47.464;19.014;2023-01-25T02:54:28;101799.16;;;-0.01;100.00
58761;BME280;44529;47.464;19.014;2023-01-25T02:57:31;101799.56;;;0.03;100.00
58761;BME280;44529;47.464;19.014;2023-01-25T03:00:34;101796.09;;;-0.04;100.00
58761;BME280;44529;47.464;19.014;2023-01-25T03:03:36;101787.91;;;-0.03;100.00
58761;BME280;44529;47.464;19.014;2023-01-25T03:06:39;101793.22;;;-0.09;100.00
58761;BME280;44529;47.464;19.014;2023-01-25T03:09:41;101794.84;;;-0.15;100.00
58761;BME280;44529;47.464;19.014;2023-01-25T03:12:44;101793.16;;;-0.36;100.00
58761;BME280;44529;47.464;19.014;2023-01-25T03:15:46;101793.16;;;-0.36;100.00
58761;BME280;44529;47.464;19.014;2023-01-25T03:18:51;101794.16;;;-0.43;100.00
58761;BME280;44529;47.464;19.014;2023-01-25T03:21:54;101792.13;;;-0.41;100.00
58761;BME280;44529;47.464;19.014;2023-01-25T03:24:57;101796.34;;;-0.60;100.00
58761;BME280;44529;47.464;19.014;2023-01-25T03:27:59;101787.81;;;-0.49;100.00
58761;BME280;44529;47.464;19.014;2023-01-25T03:31:03;101784.12;;;-0.48;100.00
58761;BME280;44529;47.464;19.014;2023-01-25T03:34:05;101783.31;;;-0.55;100.00
58761;BME280;44529;47.464;19.014;2023-01-25T03:37:08;101786.97;;;-0.56;100.00
58761;BME280;44529;47.464;19.014;2023-01-25T03:40:11;101786.97;;;-0.56;100.00
58761;BME280;44529;47.464;19.014;2023-01-25T03:43:15;101784.91;;;-0.61;100.00
58761;BME280;44529;47.464;19.014;2023-01-25T03:46:22;101791.47;;;-0.57;100.00
58761;BME280;44529;47.464;19.014;2023-01-25T03:49:25;101790.22;;;-0.61;100.00
58761;BME280;44529;47.464;19.014;2023-01-25T03:56:31;101793.94;;;-0.55;100.00
58761;BME280;44529;47.464;19.014;2023-01-25T03:59:35;101783.31;;;-0.55;100.00
58761;BME280;44529;47.464;19.014;2023-01-25T04:02:38;101778.41;;;-0.51;100.00
58761;BME280;44529;47.464;19.014;2023-01-25T04:05:42;101784.72;;;-0.52;100.00
58761;BME280;44529;47.464;19.014;2023-01-25T04:08:45;101776.13;;;-0.61;100.00
58761;BME280;44529;47.464;19.014;2023-01-25T04:11:49;101783.06;;;-0.60;100.00
58761;BME280;44529;47.464;19.014;2023-01-25T04:14:52;101778.16;;;-0.70;100.00
58761;BME280;44529;47.464;19.014;2023-01-25T04:17:55;101787.97;;;-0.70;100.00
58761;BME280;44529;47.464;19.014;2023-01-25T04:20:58;101789.81;;;-0.71;100.00
58761;BME280;44529;47.464;19.014;2023-01-25T04:24:00;101785.47;;;-0.78;100.00
58761;BME280;44529;47.464;19.014;2023-01-25T04:27:04;101793.84;;;-0.75;100.00
58761;BME280;44529;47.464;19.014;2023-01-25T04:30:09;101791.59;;;-0.71;100.00
58761;BME280;44529;47.464;19.014;2023-01-25T04:33:12;101794.25;;;-0.71;100.00
58761;BME280;44529;47.464;19.014;2023-01-25T04:36:15;101793.28;;;-0.70;100.00
58761;BME280;44529;47.464;19.014;2023-01-25T04:39:18;101797.56;;;-0.69;100.00
58761;BME280;44529;47.464;19.014;2023-01-25T04:42:21;101795.13;;;-0.71;100.00
58761;BME280;44529;47.464;19.014;2023-01-25T04:45:24;101796.53;;;-0.68;100.00
58761;BME280;44529;47.464;19.014;2023-01-25T04:48:28;101800.44;;;-0.71;100.00
58761;BME280;44529;47.464;19.014;2023-01-25T04:51:31;101798.41;;;-0.62;100.00
58761;BME280;44529;47.464;19.014;2023-01-25T04:54:33;101797.19;;;-0.53;100.00
58761;BME280;44529;47.464;19.014;2023-01-25T04:57:36;101798.81;;;-0.52;100.00
58761;BME280;44529;47.464;19.014;2023-01-25T05:00:38;101790.25;;;-0.47;100.00
58761;BME280;44529;47.464;19.014;2023-01-25T05:03:40;101787.84;;;-0.42;100.00
58761;BME280;44529;47.464;19.014;2023-01-25T05:06:45;101788.28;;;-0.32;100.00
58761;BME280;44529;47.464;19.014;2023-01-25T05:09:47;101793.37;;;-0.31;100.00
58761;BME280;44529;47.464;19.014;2023-01-25T05:12:53;101796.88;;;-0.23;100.00
58761;BME280;44529;47.464;19.014;2023-01-25T05:15:56;101793.22;;;-0.16;100.00
58761;BME280;44529;47.464;19.014;2023-01-25T05:18:59;101804.28;;;-0.06;100.00
58761;BME280;44529;47.464;19.014;2023-01-25T05:22:02;101799.16;;;0.06;100.00
58761;BME280;44529;47.464;19.014;2023-01-25T05:25:09;101802.44;;;0.21;100.00
58761;BME280;44529;47.464;19.014;2023-01-25T05:28:32;101790.78;;;0.36;100.00
58761;BME280;44529;47.464;19.014;2023-01-25T05:31:36;101801.00;;;0.59;100.00
58761;BME280;44529;47.464;19.014;2023-01-25T05:34:39;101798.50;;;0.77;100.00
58761;BME280;44529;47.464;19.014;2023-01-25T05:37:42;101796.66;;;0.91;100.00
58761;BME280;44529;47.464;19.014;2023-01-25T05:40:45;101799.66;;;1.07;100.00
58761;BME280;44529;47.464;19.014;2023-01-25T05:43:47;101804.56;;;1.17;100.00
58761;BME280;44529;47.464;19.014;2023-01-25T05:46:50;101799.37;;;1.29;100.00
58761;BME280;44529;47.464;19.014;2023-01-25T05:49:53;101797.09;;;1.32;100.00
58761;BME280;44529;47.464;19.014;2023-01-25T05:52:56;101792.75;;;1.45;100.00
58761;BME280;44529;47.464;19.014;2023-01-25T05:56:06;101790.00;;;1.58;100.00
58761;BME280;44529;47.464;19.014;2023-01-25T05:59:10;101790.00;;;1.58;100.00
58761;BME280;44529;47.464;19.014;2023-01-25T06:02:13;101797.16;;;1.64;100.00
58761;BME280;44529;47.464;19.014;2023-01-25T06:05:17;101802.47;;;1.64;100.00
58761;BME280;44529;47.464;19.014;2023-01-25T06:08:19;101801.62;;;1.70;100.00
58761;BME280;44529;47.464;19.014;2023-01-25T06:11:23;101805.34;;;1.69;100.00
58761;BME280;44529;47.464;19.014;2023-01-25T06:14:26;101803.84;;;1.73;100.00
58761;BME280;44529;47.464;19.014;2023-01-25T06:17:29;101798.53;;;1.73;100.00
58761;BME280;44529;47.464;19.014;2023-01-25T06:20:32;101809.56;;;1.83;100.00
58761;BME280;44529;47.464;19.014;2023-01-25T06:23:38;101811.78;;;1.86;100.00
58761;BME280;44529;47.464;19.014;2023-01-25T06:26:40;101813.34;;;2.01;100.00
58761;BME280;44529;47.464;19.014;2023-01-25T06:29:43;101822.88;;;2.15;100.00
58761;BME280;44529;47.464;19.014;2023-01-25T06:32:45;101824.69;;;2.21;99.17
58761;BME280;44529;47.464;19.014;2023-01-25T06:35:48;101829.22;;;2.21;98.77
58761;BME280;44529;47.464;19.014;2023-01-25T06:38:51;101830.19;;;2.26;97.85
58761;BME280;44529;47.464;19.014;2023-01-25T06:41:53;101831.47;;;2.17;98.26
58761;BME280;44529;47.464;19.014;2023-01-25T06:44:57;101828.59;;;2.18;98.56
58761;BME280;44529;47.464;19.014;2023-01-25T06:47:59;101827.31;;;2.28;98.36
58761;BME280;44529;47.464;19.014;2023-01-25T06:51:04;101833.34;;;2.41;96.74
58761;BME280;44529;47.464;19.014;2023-01-25T06:54:07;101834.94;;;2.49;96.02
58761;BME280;44529;47.464;19.014;2023-01-25T06:57:10;101834.13;;;2.49;95.44
58761;BME280;44529;47.464;19.014;2023-01-25T07:00:14;101831.72;;;2.40;96.19
58761;BME280;44529;47.464;19.014;2023-01-25T07:03:17;101825.50;;;2.47;96.47
58761;BME280;44529;47.464;19.014;2023-01-25T07:06:20;101825.19;;;2.36;95.67
58761;BME280;44529;47.464;19.014;2023-01-25T07:09:23;101819.87;;;2.30;96.33
58761;BME280;44529;47.464;19.014;2023-01-25T07:12:27;101826.66;;;2.32;95.93
58761;BME280;44529;47.464;19.014;2023-01-25T07:15:30;101825.94;;;2.43;95.75
58761;BME280;44529;47.464;19.014;2023-01-25T07:18:33;101817.06;;;2.50;95.00
58761;BME280;44529;47.464;19.014;2023-01-25T07:21:38;101826.22;;;2.60;95.07
58761;BME280;44529;47.464;19.014;2023-01-25T07:24:40;101818.19;;;2.60;94.22
58761;BME280;44529;47.464;19.014;2023-01-25T07:27:44;101819.66;;;2.56;94.29
58761;BME280;44529;47.464;19.014;2023-01-25T07:30:46;101821.03;;;2.40;94.46
58761;BME280;44529;47.464;19.014;2023-01-25T07:33:51;101828.00;;;2.41;94.23
58761;BME280;44529;47.464;19.014;2023-01-25T07:36:55;101823.87;;;2.46;94.24
58761;BME280;44529;47.464;19.014;2023-01-25T07:39:57;101828.88;;;2.60;94.88
58761;BME280;44529;47.464;19.014;2023-01-25T07:42:59;101831.91;;;2.64;93.98
58761;BME280;44529;47.464;19.014;2023-01-25T07:46:05;101825.28;;;2.73;92.87
58761;BME280;44529;47.464;19.014;2023-01-25T07:49:08;101826.97;;;2.67;92.88
58761;BME280;44529;47.464;19.014;2023-01-25T07:52:10;101818.47;;;2.95;93.08
58761;BME280;44529;47.464;19.014;2023-01-25T07:55:13;101815.66;;;2.90;93.14
58761;BME280;44529;47.464;19.014;2023-01-25T07:58:16;101823.75;;;2.84;93.10
58761;BME280;44529;47.464;19.014;2023-01-25T08:01:20;101824.31;;;2.86;91.25
58761;BME280;44529;47.464;19.014;2023-01-25T08:04:23;101824.81;;;2.76;92.56
58761;BME280;44529;47.464;19.014;2023-01-25T08:07:27;101821.50;;;2.81;92.16
58761;BME280;44529;47.464;19.014;2023-01-25T08:10:30;101820.53;;;2.75;92.36
58761;BME280;44529;47.464;19.014;2023-01-25T08:13:33;101818.53;;;2.89;91.37
58761;BME280;44529;47.464;19.014;2023-01-25T08:16:36;101821.88;;;2.84;91.21
58761;BME280;44529;47.464;19.014;2023-01-25T08:19:38;101824.25;;;2.92;91.75
58761;BME280;44529;47.464;19.014;2023-01-25T08:22:41;101819.28;;;2.96;91.56
58761;BME280;44529;47.464;19.014;2023-01-25T08:25:43;101819.81;;;3.05;90.72
58761;BME280;44529;47.464;19.014;2023-01-25T08:28:46;101819.34;;;2.89;91.33
58761;BME280;44529;47.464;19.014;2023-01-25T08:31:48;101826.25;;;2.79;92.88
58761;BME280;44529;47.464;19.014;2023-01-25T08:34:50;101815.66;;;2.90;92.26
58761;BME280;44529;47.464;19.014;2023-01-25T08:37:53;101816.53;;;2.84;92.28
58761;BME280;44529;47.464;19.014;2023-01-25T08:40:55;101806.59;;;2.91;91.56
58761;BME280;44529;47.464;19.014;2023-01-25T08:43:57;101808.66;;;2.89;91.40
58761;BME280;44529;47.464;19.014;2023-01-25T08:47:00;101807.03;;;2.88;92.42
58761;BME280;44529;47.464;19.014;2023-01-25T08:50:03;101810.16;;;3.04;92.30
58761;BME280;44529;47.464;19.014;2023-01-25T08:53:05;101808.81;;;3.13;91.65
58761;BME280;44529;47.464;19.014;2023-01-25T08:56:10;101807.69;;;3.20;90.41
58761;BME280;44529;47.464;19.014;2023-01-25T08:59:13;101803.78;;;3.23;90.97
58761;BME280;44529;47.464;19.014;2023-01-25T09:02:15;101800.41;;;3.28;90.01
58761;BME280;44529;47.464;19.014;2023-01-25T09:05:18;101796.50;;;3.30;89.08
58761;BME280;44529;47.464;19.014;2023-01-25T09:08:20;101801.84;;;3.30;89.17
58761;BME280;44529;47.464;19.014;2023-01-25T09:11:23;101804.88;;;3.34;89.87
58761;BME280;44529;47.464;19.014;2023-01-25T09:14:25;101805.25;;;3.37;88.89
58761;BME280;44529;47.464;19.014;2023-01-25T09:17:28;101798.56;;;3.28;88.83
58761;BME280;44529;47.464;19.014;2023-01-25T09:20:30;101789.37;;;3.24;89.30
58761;BME280;44529;47.464;19.014;2023-01-25T09:23:36;101793.97;;;3.35;89.08
58761;BME280;44529;47.464;19.014;2023-01-25T09:26:52;101797.53;;;3.29;88.43
58761;BME280;44529;47.464;19.014;2023-01-25T09:30:01;101788.81;;;3.34;88.52
58761;BME280;44529;47.464;19.014;2023-01-25T09:33:05;101789.19;;;3.37;88.61
58761;BME280;44529;47.464;19.014;2023-01-25T09:36:08;101788.81;;;3.34;87.99
58761;BME280;44529;47.464;19.014;2023-01-25T09:39:11;101789.28;;;3.31;87.90
58761;BME280;44529;47.464;19.014;2023-01-25T09:45:35;101787.84;;;3.46;87.88
58761;BME280;44529;47.464;19.014;2023-01-25T09:48:46;101787.41;;;3.49;87.32
58761;BME280;44529;47.464;19.014;2023-01-25T09:56:09;101780.06;;;3.45;87.77
58761;BME280;44529;47.464;19.014;2023-01-25T09:59:18;101769.53;;;3.32;87.25
58761;BME280;44529;47.464;19.014;2023-01-25T10:02:48;101759.31;;;3.29;88.27
58761;BME280;44529;47.464;19.014;2023-01-25T10:06:20;101762.06;;;3.52;87.44
58761;BME280;44529;47.464;19.014;2023-01-25T10:09:47;101741.28;;;3.66;87.05
58761;BME280;44529;47.464;19.014;2023-01-25T10:12:54;101746.19;;;3.69;86.09
58761;BME280;44529;47.464;19.014;2023-01-25T10:19:22;101732.09;;;3.73;85.29
58761;BME280;44529;47.464;19.014;2023-01-25T10:22:28;101727.22;;;3.70;86.77
58761;BME280;44529;47.464;19.014;2023-01-25T10:25:44;101741.56;;;3.76;86.95
58761;BME280;44529;47.464;19.014;2023-01-25T10:32:25;101724.34;;;3.84;86.01
58761;BME280;44529;47.464;19.014;2023-01-25T10:35:33;101722.81;;;3.76;86.26
58761;BME280;44529;47.464;19.014;2023-01-25T10:38:44;101719.22;;;3.82;86.17
58761;BME280;44529;47.464;19.014;2023-01-25T10:41:57;101711.44;;;3.80;86.06
58761;BME280;44529;47.464;19.014;2023-01-25T10:45:00;101708.41;;;3.77;85.96
58761;BME280;44529;47.464;19.014;2023-01-25T10:48:06;101702.13;;;3.83;85.68
58761;BME280;44529;47.464;19.014;2023-01-25T10:51:28;101702.50;;;3.87;85.33
58761;BME280;44529;47.464;19.014;2023-01-25T10:54:31;101697.59;;;3.84;85.71
58761;BME280;44529;47.464;19.014;2023-01-25T10:57:34;101694.66;;;3.73;85.95
58761;BME280;44529;47.464;19.014;2023-01-25T11:00:38;101695.59;;;3.67;86.78
58761;BME280;44529;47.464;19.014;2023-01-25T11:03:42;101696.75;;;3.71;87.09
58761;BME280;44529;47.464;19.014;2023-01-25T11:06:48;101692.81;;;3.74;87.25
58761;BME280;44529;47.464;19.014;2023-01-25T11:09:52;101689.31;;;3.85;85.92
58761;BME280;44529;47.464;19.014;2023-01-25T11:16:38;101666.06;;;3.74;85.40
58761;BME280;44529;47.464;19.014;2023-01-25T11:19:41;101673.06;;;3.75;86.24
58761;BME280;44529;47.464;19.014;2023-01-25T11:22:49;101660.94;;;3.84;85.92
58761;BME280;44529;47.464;19.014;2023-01-25T11:25:52;101661.66;;;3.91;85.26
58761;BME280;44529;47.464;19.014;2023-01-25T11:32:19;101648.88;;;3.93;85.90
58761;BME280;44529;47.464;19.014;2023-01-25T11:35:28;101642.22;;;4.07;85.28
58761;BME280;44529;47.464;19.014;2023-01-25T11:38:33;101640.50;;;4.01;84.37
58761;BME280;44529;47.464;19.014;2023-01-25T11:41:53;101632.47;;;3.90;84.92
58761;BME280;44529;47.464;19.014;2023-01-25T11:51:35;101608.00;;;3.98;85.82
58761;BME280;44529;47.464;19.014;2023-01-25T11:58:22;101594.62;;;3.98;85.57
58761;BME280;44529;47.464;19.014;2023-01-25T12:08:36;101573.34;;;4.03;86.78
58761;BME280;44529;47.464;19.014;2023-01-25T12:12:00;101566.25;;;4.08;86.27
58761;BME280;44529;47.464;19.014;2023-01-25T12:25:29;101548.31;;;4.09;85.43
58761;BME280;44529;47.464;19.014;2023-01-25T12:32:05;101545.06;;;4.19;86.40
58761;BME280;44529;47.464;19.014;2023-01-25T12:45:18;101544.66;;;4.27;84.78
58761;BME280;44529;47.464;19.014;2023-01-25T12:48:33;101532.41;;;4.31;84.42
58761;BME280;44529;47.464;19.014;2023-01-25T12:51:40;101534.06;;;4.32;84.95
58761;BME280;44529;47.464;19.014;2023-01-25T12:54:44;101535.34;;;4.29;83.88
58761;BME280;44529;47.464;19.014;2023-01-25T13:08:16;101521.53;;;4.21;84.94
58761;BME280;44529;47.464;19.014;2023-01-25T13:11:33;101508.25;;;4.26;84.33
58761;BME280;44529;47.464;19.014;2023-01-25T13:14:38;101518.94;;;4.26;85.26
58761;BME280;44529;47.464;19.014;2023-01-25T13:17:41;101510.69;;;4.27;85.20
58761;BME280;44529;47.464;19.014;2023-01-25T13:20:47;101503.41;;;4.40;84.32
58761;BME280;44529;47.464;19.014;2023-01-25T13:27:26;101497.03;;;4.29;84.41
58761;BME280;44529;47.464;19.014;2023-01-25T13:30:33;101492.66;;;4.23;85.18
58761;BME280;44529;47.464;19.014;2023-01-25T13:33:35;101497.28;;;4.27;85.05
58761;BME280;44529;47.464;19.014;2023-01-25T13:43:02;101483.91;;;4.27;84.40
58761;BME280;44529;47.464;19.014;2023-01-25T13:46:08;101487.00;;;4.36;84.57
58761;BME280;44529;47.464;19.014;2023-01-25T13:49:20;101485.88;;;4.32;84.29
58761;BME280;44529;47.464;19.014;2023-01-25T13:52:24;101488.69;;;4.25;85.64
58761;BME280;44529;47.464;19.014;2023-01-25T13:55:28;101490.16;;;4.33;85.04
58761;BME280;44529;47.464;19.014;2023-01-25T13:58:35;101484.16;;;4.26;84.92
58761;BME280;44529;47.464;19.014;2023-01-25T14:01:46;101479.47;;;4.33;85.16
58761;BME280;44529;47.464;19.014;2023-01-25T14:04:50;101482.31;;;4.43;84.43
58761;BME280;44529;47.464;19.014;2023-01-25T14:07:55;101479.31;;;4.40;85.45
58761;BME280;44529;47.464;19.014;2023-01-25T14:10:58;101475.84;;;4.39;84.19
58761;BME280;44529;47.464;19.014;2023-01-25T14:14:31;101468.00;;;4.38;84.81
58761;BME280;44529;47.464;19.014;2023-01-25T14:17:36;101475.19;;;4.49;84.77
58761;BME280;44529;47.464;19.014;2023-01-25T14:20:39;101470.09;;;4.47;84.54
58761;BME280;44529;47.464;19.014;2023-01-25T14:23:43;101470.31;;;4.46;84.40
58761;BME280;44529;47.464;19.014;2023-01-25T14:26:45;101472.81;;;4.35;85.59
58761;BME280;44529;47.464;19.014;2023-01-25T14:29:48;101471.28;;;4.40;84.70
58761;BME280;44529;47.464;19.014;2023-01-25T14:32:55;101472.56;;;4.37;85.21
58761;BME280;44529;47.464;19.014;2023-01-25T14:36:12;101474.78;;;4.40;85.43
58761;BME280;44529;47.464;19.014;2023-01-25T14:39:28;101462.81;;;4.31;83.79
58761;BME280;44529;47.464;19.014;2023-01-25T14:42:31;101470.13;;;4.35;82.81
58761;BME280;44529;47.464;19.014;2023-01-25T14:45:33;101469.56;;;4.33;83.25
58761;BME280;44529;47.464;19.014;2023-01-25T14:48:39;101463.41;;;4.33;83.11
58761;BME280;44529;47.464;19.014;2023-01-25T14:51:47;101463.44;;;4.21;83.46
58761;BME280;44529;47.464;19.014;2023-01-25T14:54:52;101460.19;;;4.19;83.89
58761;BME280;44529;47.464;19.014;2023-01-25T14:57:58;101459.81;;;4.27;83.83
58761;BME280;44529;47.464;19.014;2023-01-25T15:01:02;101457.19;;;4.16;84.83
58761;BME280;44529;47.464;19.014;2023-01-25T15:04:10;101458.78;;;4.17;84.50
58761;BME280;44529;47.464;19.014;2023-01-25T15:07:41;101453.69;;;4.15;85.57
58761;BME280;44529;47.464;19.014;2023-01-25T15:10:52;101453.16;;;4.01;85.20
58761;BME280;44529;47.464;19.014;2023-01-25T15:14:09;101452.78;;;4.10;85.50
58761;BME280;44529;47.464;19.014;2023-01-25T15:20:42;101457.66;;;4.13;84.41
58761;BME280;44529;47.464;19.014;2023-01-25T15:23:48;101449.84;;;4.11;84.14
58761;BME280;44529;47.464;19.014;2023-01-25T15:26:53;101451.72;;;4.11;84.01
58761;BME280;44529;47.464;19.014;2023-01-25T15:29:55;101454.78;;;4.02;84.12
58761;BME280;44529;47.464;19.014;2023-01-25T15:33:00;101448.38;;;4.03;84.04
58761;BME280;44529;47.464;19.014;2023-01-25T15:36:03;101455.59;;;4.03;84.48
58761;BME280;44529;47.464;19.014;2023-01-25T15:39:10;101449.66;;;4.01;84.50
58761;BME280;44529;47.464;19.014;2023-01-25T15:42:12;101446.47;;;3.87;86.43
58761;BME280;44529;47.464;19.014;2023-01-25T15:45:15;101449.03;;;3.82;86.47
58761;BME280;44529;47.464;19.014;2023-01-25T15:48:22;101450.75;;;3.88;86.96
58761;BME280;44529;47.464;19.014;2023-01-25T15:51:26;101458.19;;;3.86;86.62
58761;BME280;44529;47.464;19.014;2023-01-25T15:54:29;101443.66;;;3.94;86.74
58761;BME280;44529;47.464;19.014;2023-01-25T15:57:33;101452.25;;;3.96;86.48
58761;BME280;44529;47.464;19.014;2023-01-25T16:00:37;101452.50;;;3.83;87.63
58761;BME280;44529;47.464;19.014;2023-01-25T16:03:40;101449.03;;;3.82;87.47
58761;BME280;44529;47.464;19.014;2023-01-25T16:09:46;101435.69;;;3.70;88.67
58761;BME280;44529;47.464;19.014;2023-01-25T16:12:49;101434.38;;;3.73;88.50
58761;BME280;44529;47.464;19.014;2023-01-25T16:15:53;101427.88;;;3.80;87.90
58761;BME280;44529;47.464;19.014;2023-01-25T16:18:57;101434.88;;;3.70;89.10
58761;BME280;44529;47.464;19.014;2023-01-25T16:22:00;101435.69;;;3.70;88.87
58761;BME280;44529;47.464;19.014;2023-01-25T16:25:02;101437.44;;;3.65;88.88
58761;BME280;44529;47.464;19.014;2023-01-25T16:28:12;101434.50;;;3.66;88.10
58761;BME280;44529;47.464;19.014;2023-01-25T16:31:15;101430.22;;;3.65;87.57
58761;BME280;44529;47.464;19.014;2023-01-25T16:34:33;101431.50;;;3.63;89.48
58761;BME280;44529;47.464;19.014;2023-01-25T16:37:36;101437.13;;;3.49;89.87
58761;BME280;44529;47.464;19.014;2023-01-25T16:40:38;101430.97;;;3.49;90.46
58761;BME280;44529;47.464;19.014;2023-01-25T16:43:42;101429.53;;;3.58;89.90
58761;BME280;44529;47.464;19.014;2023-01-25T16:46:45;101434.88;;;3.70;89.09
58761;BME280;44529;47.464;19.014;2023-01-25T16:49:51;101432.31;;;3.75;88.24
58761;BME280;44529;47.464;19.014;2023-01-25T16:52:53;101429.75;;;3.68;89.24
58761;BME280;44529;47.464;19.014;2023-01-25T16:55:59;101429.91;;;3.62;89.79
58761;BME280;44529;47.464;19.014;2023-01-25T16:59:03;101428.84;;;3.63;89.68
58761;BME280;44529;47.464;19.014;2023-01-25T17:02:10;101437.44;;;3.65;89.69
58761;BME280;44529;47.464;19.014;2023-01-25T17:05:13;101430.94;;;3.61;90.67
58761;BME280;44529;47.464;19.014;2023-01-25T17:08:15;101416.03;;;3.65;90.91
58761;BME280;44529;47.464;19.014;2023-01-25T17:11:17;101419.75;;;3.64;90.08
58761;BME280;44529;47.464;19.014;2023-01-25T17:14:21;101427.53;;;3.65;90.36
58761;BME280;44529;47.464;19.014;2023-01-25T17:17:24;101421.88;;;3.62;90.73
58761;BME280;44529;47.464;19.014;2023-01-25T17:20:28;101414.78;;;3.56;90.83
58761;BME280;44529;47.464;19.014;2023-01-25T17:23:32;101414.78;;;3.56;90.86
58761;BME280;44529;47.464;19.014;2023-01-25T17:26:35;101410.63;;;3.48;91.76
58761;BME280;44529;47.464;19.014;2023-01-25T17:29:37;101409.44;;;3.56;90.74
58761;BME280;44529;47.464;19.014;2023-01-25T17:32:40;101403.97;;;3.50;90.11
58761;BME280;44529;47.464;19.014;2023-01-25T17:35:42;101408.03;;;3.53;90.33
58761;BME280;44529;47.464;19.014;2023-01-25T17:38:45;101410.37;;;3.49;90.03
58761;BME280;44529;47.464;19.014;2023-01-25T17:41:49;101408.16;;;3.46;90.92
58761;BME280;44529;47.464;19.014;2023-01-25T17:44:52;101391.66;;;3.49;90.52